Terminal Aerodrome Forecast
Issued by NWS

Home | Current Version | Previous Version | Text Only | Print | Product List | Glossary On
Versions: 1 2 3 4 5 6 7 8 9 10 11 12 13 14 15 16 17 18 19
000
FTUS41 KPBZ 251100
TAFLBE
TAF
KLBE 251138Z 2512/2612 23010KT 5SM -SHSN BR OVC008
     FM251900 VRB03KT 2SM -SN OVC007
     FM252300 03005KT 3/4SM -SN OVC004=

USA.gov is the U.S. government's official web portal to all federal, state and local government web resources and services.